Terminal Aerodrome Forecast
Issued by NWS

Home | Current Version | Previous Version | Text Only | Print | Product List | Glossary On
Versions: 1 2 3 4 5 6 7 8 9 10 11 12 13 14 15 16 17 18 19 20 21 22 23 24
000
FTUS41 KBTV 230541 CCA
TAFSLK
TAF COR
KSLK 230541Z 2306/2406 00000KT P6SM BKN035
      TEMPO 2306/2310 3SM BR
     FM231500 24006KT P6SM SKC
     FM231900 24010KT P6SM SKC
     FM240400 23006KT P6SM SCT110=

USA.gov is the U.S. government's official web portal to all federal, state and local government web resources and services.